createdAt,value
2023-05-10T00:02:58.926Z,8.24
2023-05-10T00:08:00.964Z,8.21
2023-05-10T00:13:03.014Z,8.13
2023-05-10T00:18:06.500Z,7.93
2023-05-10T00:23:08.496Z,7.91
2023-05-10T00:28:10.448Z,7.85
2023-05-10T00:33:13.855Z,7.67
2023-05-10T00:38:15.884Z,7.50
2023-05-10T00:43:18.078Z,7.36
2023-05-10T00:48:22.530Z,7.34
2023-05-10T00:53:25.597Z,7.32
2023-05-10T00:58:29.280Z,7.30
2023-05-10T01:03:33.325Z,7.17
2023-05-10T01:08:35.397Z,7.10
2023-05-10T01:13:40.352Z,7.20
2023-05-10T01:18:44.875Z,7.12
2023-05-10T01:24:07.614Z,7.06
2023-05-10T01:29:19.894Z,7.03
2023-05-10T01:34:28.250Z,7.15
2023-05-10T01:39:36.930Z,7.21
2023-05-10T01:44:44.078Z,7.41
2023-05-10T01:49:51.441Z,7.55
2023-05-10T01:54:57.075Z,7.55
2023-05-10T02:00:01.814Z,7.53
2023-05-10T02:05:06.996Z,7.63
2023-05-10T02:10:10.860Z,7.68
2023-05-10T02:15:15.750Z,7.72
2023-05-10T02:20:20.401Z,7.77
2023-05-10T02:25:24.271Z,7.78
2023-05-10T02:30:27.061Z,7.86
2023-05-10T02:35:31.830Z,7.80
2023-05-10T02:40:34.913Z,7.80
2023-05-10T02:45:39.815Z,7.80
2023-05-10T02:50:48.705Z,7.91
2023-05-10T02:55:53.705Z,7.86
2023-05-10T03:00:55.786Z,7.98
2023-05-10T03:06:02.205Z,7.89
2023-05-10T03:11:23.262Z,8.03
2023-05-10T03:16:30.312Z,8.44
2023-05-10T03:21:36.182Z,8.77
2023-05-10T03:26:39.484Z,9.47
2023-05-10T03:31:41.772Z,9.74
2023-05-10T03:36:45.175Z,9.82
2023-05-10T03:41:47.101Z,9.88
2023-05-10T03:46:49.097Z,9.98
2023-05-10T03:51:52.733Z,9.68
2023-05-10T03:56:54.723Z,9.53
2023-05-10T04:01:56.711Z,9.63
2023-05-10T04:07:00.039Z,9.72
2023-05-10T04:12:03.301Z,9.75
2023-05-10T04:17:05.392Z,9.74
2023-05-10T04:22:08.782Z,9.78
2023-05-10T04:27:10.810Z,9.88
2023-05-10T04:32:12.802Z,9.90
2023-05-10T04:37:16.053Z,9.97
2023-05-10T04:42:18.070Z,10.21
2023-05-10T04:47:20.069Z,10.41
2023-05-10T04:52:23.496Z,10.57
2023-05-10T04:57:25.621Z,10.76
2023-05-10T05:02:27.668Z,10.97
2023-05-10T05:07:31.663Z,11.13
2023-05-10T05:12:33.724Z,11.23
2023-05-10T05:17:35.753Z,11.35
2023-05-10T05:22:39.190Z,11.48
2023-05-10T05:27:41.133Z,11.70
2023-05-10T05:32:43.175Z,11.87
2023-05-10T05:37:46.537Z,12.06
2023-05-10T05:42:48.568Z,12.24
2023-05-10T05:47:50.531Z,12.33
2023-05-10T05:52:53.912Z,12.52
2023-05-10T05:57:55.930Z,12.65
2023-05-10T06:02:58.108Z,12.81
2023-05-10T06:08:02.166Z,12.94
2023-05-10T06:13:04.269Z,12.93
2023-05-10T06:18:07.030Z,12.89
2023-05-10T06:23:10.291Z,12.84
2023-05-10T06:28:12.415Z,12.93
2023-05-10T06:33:14.497Z,12.89
2023-05-10T06:38:17.810Z,13.21
2023-05-10T06:43:19.782Z,13.27
2023-05-10T06:48:21.802Z,13.32
2023-05-10T06:53:25.335Z,13.63
2023-05-10T06:58:27.277Z,13.70
2023-05-10T07:03:29.281Z,13.90
2023-05-10T07:08:32.824Z,13.89
2023-05-10T07:13:35.559Z,14.22
2023-05-10T07:18:37.544Z,14.44
2023-05-10T07:23:42.469Z,14.60
2023-05-10T07:28:46.556Z,14.77
2023-05-10T07:33:48.596Z,14.67
2023-05-10T07:38:52.078Z,14.94
2023-05-10T07:43:54.020Z,15.48
2023-05-10T07:48:56.097Z,15.74
2023-05-10T07:53:59.552Z,16.04
2023-05-10T07:59:02.545Z,15.89
2023-05-10T08:04:04.981Z,15.87
2023-05-10T08:09:08.488Z,16.24
2023-05-10T08:14:10.613Z,16.47
2023-05-10T08:19:12.610Z,16.65
2023-05-10T08:24:16.228Z,16.68
2023-05-10T08:29:18.288Z,16.86
2023-05-10T08:34:20.237Z,16.98
2023-05-10T08:39:30.249Z,17.10
2023-05-10T08:44:35.177Z,17.29
2023-05-10T08:49:38.470Z,17.38
2023-05-10T08:54:42.514Z,18.39
2023-05-10T08:59:44.470Z,17.57
2023-05-10T09:04:46.833Z,17.02
2023-05-10T09:09:50.786Z,17.03
2023-05-10T09:14:55.064Z,17.04
2023-05-10T09:20:00.544Z,17.09
2023-05-10T09:25:09.463Z,17.49
2023-05-10T09:30:16.478Z,17.57
2023-05-10T09:35:20.494Z,17.83
2023-05-10T09:40:25.224Z,18.00
2023-05-10T09:45:29.420Z,18.61
2023-05-10T09:50:31.792Z,18.57
2023-05-10T09:55:43.793Z,18.45
2023-05-10T10:00:48.753Z,17.98
2023-05-10T10:05:51.224Z,17.85
2023-05-10T10:10:54.681Z,18.02
2023-05-10T10:15:56.680Z,17.54
2023-05-10T10:20:59.057Z,17.70
2023-05-10T10:26:02.787Z,17.04
2023-05-10T10:31:22.173Z,17.29
2023-05-10T10:36:24.251Z,17.65
2023-05-10T10:41:31.298Z,17.43
2023-05-10T10:46:35.350Z,17.60
2023-05-10T10:51:38.189Z,17.68
2023-05-10T10:56:41.454Z,17.55
2023-05-10T11:01:45.493Z,17.23
2023-05-10T11:06:47.733Z,17.01
2023-05-10T11:11:52.177Z,17.15
2023-05-10T11:16:54.299Z,17.09
2023-05-10T11:22:14.399Z,17.08
2023-05-10T11:27:17.825Z,17.12
2023-05-10T11:32:20.676Z,17.20
2023-05-10T11:37:22.675Z,17.56
2023-05-10T11:42:26.010Z,17.82
2023-05-10T11:47:28.026Z,18.68
2023-05-10T11:52:30.073Z,18.63
2023-05-10T11:57:33.491Z,18.24
2023-05-10T12:02:35.863Z,17.61
2023-05-10T12:07:38.008Z,17.86
2023-05-10T12:12:45.528Z,17.92
2023-05-10T12:17:48.055Z,17.85
2023-05-10T12:22:54.446Z,18.17
2023-05-10T12:28:01.638Z,18.26
2023-05-10T12:33:08.976Z,18.21
2023-05-10T12:38:26.244Z,18.23
2023-05-10T12:43:29.896Z,19.64
2023-05-10T12:48:32.428Z,19.89
2023-05-10T12:53:34.349Z,19.91
2023-05-10T12:58:37.500Z,19.27
2023-05-10T13:03:39.465Z,19.00
2023-05-10T13:08:41.406Z,19.29
2023-05-10T13:13:44.840Z,18.40
2023-05-10T13:18:46.838Z,18.16
2023-05-10T13:23:48.876Z,18.42
2023-05-10T13:28:52.860Z,18.80
2023-05-10T13:33:54.980Z,18.78
2023-05-10T13:38:56.928Z,19.32
2023-05-10T13:44:00.395Z,19.02
2023-05-10T13:49:02.963Z,18.77
2023-05-10T13:54:05.058Z,19.13
2023-05-10T13:59:08.788Z,18.42
2023-05-10T14:04:11.607Z,18.31
2023-05-10T14:09:13.836Z,17.93
2023-05-10T14:14:17.228Z,17.56
2023-05-10T14:19:19.440Z,17.83
2023-05-10T14:24:21.451Z,17.47
2023-05-10T14:29:24.922Z,17.63
2023-05-10T14:34:26.923Z,17.71
2023-05-10T14:39:31.139Z,17.84
2023-05-10T14:44:34.464Z,18.19
2023-05-10T14:49:36.581Z,18.31
2023-05-10T14:54:38.589Z,18.29
2023-05-10T14:59:42.126Z,18.14
2023-05-10T15:04:44.488Z,18.32
2023-05-10T15:09:47.180Z,18.25
2023-05-10T15:14:50.617Z,18.05
2023-05-10T15:19:52.752Z,17.97
2023-05-10T15:24:54.831Z,18.12
2023-05-10T15:30:00.210Z,17.79
2023-05-10T15:35:03.510Z,17.96
2023-05-10T15:40:07.202Z,17.77
2023-05-10T15:45:12.112Z,17.77
2023-05-10T15:50:15.541Z,17.77
2023-05-10T15:55:18.020Z,17.82
2023-05-10T16:00:22.008Z,17.86
2023-05-10T16:05:24.233Z,17.38
2023-05-10T16:10:26.082Z,17.23
2023-05-10T16:15:29.623Z,17.22
2023-05-10T16:20:33.010Z,16.84
2023-05-10T16:25:35.736Z,17.10
2023-05-10T16:30:39.328Z,16.99
2023-05-10T16:35:41.416Z,16.98
2023-05-10T16:40:43.409Z,16.95
2023-05-10T16:45:46.771Z,17.11
2023-05-10T16:50:49.011Z,16.84
2023-05-10T16:55:51.078Z,16.53
2023-05-10T17:00:55.177Z,16.35
2023-05-10T17:05:57.251Z,16.14
2023-05-10T17:11:01.383Z,15.97
2023-05-10T17:16:05.044Z,15.70
2023-05-10T17:21:07.164Z,15.44
2023-05-10T17:26:09.270Z,15.11
2023-05-10T17:31:12.760Z,14.77
2023-05-10T17:36:14.807Z,14.29
2023-05-10T17:41:17.128Z,13.99
2023-05-10T17:46:20.478Z,13.74
2023-05-10T17:51:22.581Z,13.50
2023-05-10T17:56:25.432Z,13.24
2023-05-10T18:01:28.878Z,13.06
2023-05-10T18:06:30.933Z,12.86
2023-05-10T18:11:34.620Z,12.90
2023-05-10T18:16:38.076Z,12.73
2023-05-10T18:21:40.258Z,12.57
2023-05-10T18:26:43.015Z,12.44
2023-05-10T18:31:46.389Z,12.33
2023-05-10T18:36:48.677Z,12.22
2023-05-10T18:41:50.772Z,12.17
2023-05-10T18:46:54.296Z,12.13
2023-05-10T18:51:56.396Z,12.29
2023-05-10T18:56:58.772Z,12.42
2023-05-10T19:02:02.601Z,12.43
2023-05-10T19:07:04.701Z,12.44
2023-05-10T19:12:06.854Z,12.66
2023-05-10T19:17:10.232Z,12.59
2023-05-10T19:22:12.314Z,12.54
2023-05-10T19:27:15.801Z,12.59
2023-05-10T19:32:19.428Z,12.79
2023-05-10T19:37:21.489Z,12.90
2023-05-10T19:42:23.428Z,12.94
2023-05-10T19:47:26.844Z,12.87
2023-05-10T19:52:28.798Z,12.87
2023-05-10T19:57:30.945Z,12.86
2023-05-10T20:02:34.297Z,12.95
2023-05-10T20:07:36.960Z,13.03
2023-05-10T20:12:39.043Z,12.98
2023-05-10T20:17:42.441Z,13.08
2023-05-10T20:22:44.682Z,13.05
2023-05-10T20:27:46.898Z,13.06
2023-05-10T20:32:50.325Z,13.14
2023-05-10T20:37:52.414Z,13.10
2023-05-10T20:42:54.499Z,13.02
2023-05-10T20:47:58.197Z,12.98
2023-05-10T20:53:01.053Z,12.81
2023-05-10T20:58:04.824Z,12.58
2023-05-10T21:03:08.547Z,12.39
2023-05-10T21:08:10.568Z,12.38
2023-05-10T21:13:12.578Z,12.36
2023-05-10T21:18:15.878Z,12.01
2023-05-10T21:23:17.861Z,11.84
2023-05-10T21:28:19.890Z,11.51
2023-05-10T21:33:23.741Z,11.37
2023-05-10T21:38:27.650Z,11.07
2023-05-10T21:43:29.589Z,11.24
2023-05-10T21:48:32.887Z,10.84
2023-05-10T21:53:36.167Z,12.04
2023-05-10T21:58:38.175Z,11.45
2023-05-10T22:03:41.480Z,10.84
2023-05-10T22:08:43.971Z,10.15
2023-05-10T22:13:45.918Z,9.92
2023-05-10T22:18:49.267Z,9.73
2023-05-10T22:23:51.792Z,9.44
2023-05-10T22:28:53.729Z,9.35
2023-05-10T22:33:57.133Z,9.16
2023-05-10T22:38:59.080Z,9.01
2023-05-10T22:44:01.303Z,8.93
2023-05-10T22:49:04.817Z,9.09
2023-05-10T22:54:07.283Z,9.11
2023-05-10T22:59:09.538Z,8.96
2023-05-10T23:04:12.825Z,8.85
2023-05-10T23:09:14.816Z,8.78
2023-05-10T23:14:16.953Z,8.75
2023-05-10T23:19:20.243Z,8.59
2023-05-10T23:24:22.247Z,8.53
2023-05-10T23:29:26.184Z,8.49
2023-05-10T23:34:29.685Z,8.37
2023-05-10T23:39:31.875Z,8.14
2023-05-10T23:44:33.837Z,8.02
2023-05-10T23:49:37.990Z,8.27
2023-05-10T23:54:39.920Z,8.21
2023-05-10T23:59:41.871Z,8.21
